Time;durP1;ratioP1;P1;durP2;ratioP2;P2;SDS_P1;SDS_P2;PMS_P1;PMS_P2;Temp;Humidity;BMP_temperature;BMP_pressure;BME280_temperature;BME280_humidity;BME280_pressure;Samples;Min_cycle;Max_cycle;Signal;HPM_P1;HPM_P2
2020/12/18 00:02:20;;;;;;;24.80;13.65;;;;;;;2.69;99.13;99718.56;4974487;28;20122;-73
2020/12/18 00:04:46;;;;;;;22.08;14.30;;;;;;;2.66;99.39;99721.94;4956559;28;20035;-74
2020/12/18 00:07:11;;;;;;;16.92;12.52;;;;;;;2.78;99.47;99718.84;4955937;28;20046;-74
2020/12/18 00:09:37;;;;;;;23.35;13.18;;;;;;;2.87;99.41;99720.78;4954995;29;20038;-74
2020/12/18 00:12:02;;;;;;;22.38;12.77;;;;;;;2.86;99.83;99722.50;4953299;28;20019;-74
2020/12/18 00:14:28;;;;;;;23.90;12.93;;;;;;;2.89;100.00;99716.56;4954736;29;20015;-73
2020/12/18 00:16:53;;;;;;;20.90;13.55;;;;;;;2.89;100.00;99716.56;4954583;28;20031;-73
2020/12/18 00:19:18;;;;;;;20.98;13.07;;;;;;;2.96;100.00;99713.38;4954871;29;20031;-73
2020/12/18 00:21:44;;;;;;;18.02;11.18;;;;;;;2.94;99.70;99717.56;4954582;29;20031;-73
2020/12/18 00:24:09;;;;;;;17.17;11.00;;;;;;;2.84;99.12;99719.00;4954497;29;20023;-73
2020/12/18 00:26:35;;;;;;;17.70;10.57;;;;;;;2.82;98.80;99716.41;4954831;28;20024;-73
2020/12/18 00:29:00;;;;;;;17.77;11.65;;;;;;;2.77;98.85;99717.97;4954579;29;20058;-73
2020/12/18 00:31:29;;;;;;;21.13;11.40;;;;;;;2.74;98.91;99719.56;4954662;29;20031;-73
2020/12/18 00:33:54;;;;;;;24.05;12.20;;;;;;;2.64;98.67;99725.25;4954352;29;20024;-73
2020/12/18 00:36:20;;;;;;;18.83;11.95;;;;;;;2.56;98.55;99722.47;4954552;28;20019;-73
2020/12/18 00:38:45;;;;;;;22.80;13.30;;;;;;;2.57;98.55;99719.09;4954588;29;20034;-74
2020/12/18 00:41:14;;;;;;;27.48;13.07;;;;;;;2.47;98.68;99724.78;4954356;29;20034;-73
2020/12/18 00:43:39;;;;;;;50.88;15.27;;;;;;;2.39;99.38;99724.53;4954099;29;20050;-74
2020/12/18 00:46:05;;;;;;;54.40;15.65;;;;;;;2.38;99.55;99721.94;4954221;28;20497;-73
2020/12/18 00:48:31;;;;;;;76.15;16.05;;;;;;;2.31;100.00;99729.41;4954304;29;20031;-73
2020/12/18 00:50:56;;;;;;;67.57;14.60;;;;;;;2.33;100.00;99728.59;4954107;29;20103;-74
2020/12/18 00:53:22;;;;;;;100.20;16.70;;;;;;;2.29;100.00;99722.53;4954130;29;20023;-73
2020/12/18 00:55:48;;;;;;;60.28;14.23;;;;;;;2.29;100.00;99725.94;4953990;28;20086;-73
2020/12/18 00:58:14;;;;;;;86.47;15.68;;;;;;;2.28;100.00;99729.34;4954144;29;20090;-73
2020/12/18 07:02:40;;;;;;;18.90;13.13;;;;;;;1.84;98.74;99711.72;4950856;29;20416;-76
2020/12/18 07:05:25;;;;;;;20.52;14.23;;;;;;;1.80;99.14;99711.66;4952427;29;20035;-75
2020/12/18 07:07:56;;;;;;;20.02;12.48;;;;;;;1.85;99.12;99713.50;4952410;28;20050;-75
2020/12/18 07:10:29;;;;;;;26.85;16.17;;;;;;;1.75;99.36;99712.31;4950793;29;20035;-75
2020/12/18 07:12:59;;;;;;;30.33;16.98;;;;;;;1.75;99.64;99713.19;4898668;28;20046;-74
2020/12/18 07:15:43;;;;;;;33.40;16.98;;;;;;;1.80;99.75;99721.88;4978497;23;20408;-71
2020/12/18 07:18:14;;;;;;;39.28;17.05;;;;;;;1.75;99.84;99718.31;4952382;29;20035;-72
2020/12/18 07:20:56;;;;;;;31.13;16.98;;;;;;;1.75;100.00;99717.44;4952356;29;20404;-72
2020/12/18 07:23:23;;;;;;;28.17;16.05;;;;;;;1.69;100.00;99718.13;4954578;28;20479;-71
2020/12/18 07:25:49;;;;;;;23.80;14.40;;;;;;;1.78;100.00;99718.38;4955690;28;20031;-73
2020/12/18 07:28:16;;;;;;;17.35;13.10;;;;;;;1.92;100.00;99711.16;4955564;29;20547;-72
2020/12/18 07:30:47;;;;;;;18.20;13.73;;;;;;;2.08;100.00;99712.53;4955738;29;20035;-72
2020/12/18 07:33:14;;;;;;;24.02;15.07;;;;;;;2.15;100.00;99706.78;4955543;29;20031;-72
2020/12/18 07:35:45;;;;;;;21.13;13.80;;;;;;;2.31;99.39;99711.50;4955551;28;20034;-72
2020/12/18 07:38:18;;;;;;;24.15;15.95;;;;;;;2.13;98.59;99707.53;4955579;29;20032;-72
2020/12/18 07:40:44;;;;;;;28.92;15.40;;;;;;;2.22;98.37;99716.34;4955397;29;20027;-73
2020/12/18 07:43:11;;;;;;;29.70;18.05;;;;;;;2.00;98.20;99713.97;4955201;29;20119;-70
2020/12/18 07:45:38;;;;;;;32.08;18.20;;;;;;;1.89;98.58;99721.31;4955348;28;20055;-72
2020/12/18 07:48:11;;;;;;;28.25;18.13;;;;;;;1.89;98.81;99720.44;4955486;29;20439;-72
2020/12/18 07:50:37;;;;;;;31.92;17.73;;;;;;;1.87;98.74;99724.63;4955382;29;20050;-70
2020/12/18 07:53:10;;;;;;;36.30;18.05;;;;;;;1.71;98.97;99720.72;4955189;29;20477;-72
2020/12/18 07:55:35;;;;;;;29.58;17.17;;;;;;;1.72;98.72;99715.63;4937942;29;20479;-73
2020/12/18 07:58:01;;;;;;;26.73;17.10;;;;;;;1.78;99.12;99713.28;4955237;29;20031;-73
2020/12/18 08:00:26;;;;;;;24.25;15.63;;;;;;;1.77;98.94;99711.53;4938228;29;20070;-74
2020/12/18 08:02:53;;;;;;;47.28;17.27;;;;;;;1.70;98.63;99704.50;4953795;29;20019;-72
2020/12/18 08:05:22;;;;;;;69.72;17.75;;;;;;;1.61;98.98;99708.47;4955184;28;20425;-72
2020/12/18 08:07:58;;;;;;;30.92;16.08;;;;;;;1.63;99.36;99712.78;4955037;29;20038;-72
2020/12/18 08:10:23;;;;;;;47.70;17.30;;;;;;;1.66;99.52;99705.22;4937957;29;20035;-75
2020/12/18 08:12:50;;;;;;;105.05;17.33;;;;;;;1.70;99.15;99714.72;4954916;29;20442;-73
2020/12/18 08:15:16;;;;;;;60.60;17.23;;;;;;;1.80;98.98;99711.66;4955174;28;20063;-72
2020/12/18 08:17:42;;;;;;;107.70;17.55;;;;;;;1.83;98.82;99710.00;4952798;28;20109;-73
2020/12/18 08:20:11;;;;;;;114.38;18.88;;;;;;;1.75;98.87;99712.31;4957519;28;20054;-71
2020/12/18 08:22:42;;;;;;;89.78;17.38;;;;;;;1.63;99.01;99717.88;4946823;29;20034;-72
2020/12/18 08:25:09;;;;;;;90.15;18.73;;;;;;;1.73;99.31;99714.81;4954783;28;20015;-72
2020/12/18 08:27:40;;;;;;;71.80;18.70;;;;;;;1.71;99.36;99711.34;4954533;29;20472;-72
2020/12/18 08:30:06;;;;;;;86.72;17.52;;;;;;;1.79;99.05;99715.03;4954675;29;20062;-72
2020/12/18 08:32:33;;;;;;;99.72;18.48;;;;;;;1.70;99.34;99714.72;4954480;29;20106;-72
2020/12/18 08:35:05;;;;;;;96.30;21.15;;;;;;;1.66;99.58;99719.69;4954471;28;20038;-72
2020/12/18 08:37:31;;;;;;;69.72;18.65;;;;;;;1.74;99.56;99706.34;4954694;29;20019;-71
2020/12/18 08:39:56;;;;;;;71.75;18.50;;;;;;;1.92;99.59;99711.16;4954398;29;20034;-75
2020/12/18 08:42:22;;;;;;;93.50;20.08;;;;;;;1.95;99.17;99710.41;4954340;29;20030;-73
2020/12/18 08:44:47;;;;;;;32.72;18.30;;;;;;;2.07;98.93;99710.75;4953985;29;20111;-73
2020/12/18 08:47:27;;;;;;;55.38;18.20;;;;;;;1.94;98.66;99711.22;4953897;29;20071;-75
2020/12/18 08:49:54;;;;;;;32.83;17.38;;;;;;;2.18;98.52;99719.66;4952749;29;20074;-73
2020/12/18 08:52:25;;;;;;;59.17;18.70;;;;;;;2.17;98.50;99723.00;4954406;29;20058;-73
2020/12/18 08:55:00;;;;;;;30.05;17.98;;;;;;;2.34;98.11;99725.22;4953983;28;20086;-72
2020/12/18 08:57:30;;;;;;;45.45;18.00;;;;;;;2.30;97.40;99732.78;4954625;29;20035;-72
2020/12/18 09:00:09;;;;;;;39.20;18.50;;;;;;;2.29;97.78;99738.72;4954232;29;20035;-72
2020/12/18 09:02:38;;;;;;;32.08;17.13;;;;;;;2.41;97.40;99737.34;4954139;29;20110;-72
2020/12/18 09:05:12;;;;;;;29.27;18.17;;;;;;;2.52;97.03;99741.13;4953835;28;20071;-74
2020/12/18 09:07:41;;;;;;;37.03;17.67;;;;;;;2.46;96.89;99738.38;4953976;29;20627;-73
2020/12/18 09:10:08;;;;;;;27.70;17.65;;;;;;;2.50;97.15;99737.63;4953773;29;20027;-74
2020/12/18 09:12:44;;;;;;;25.45;16.08;;;;;;;2.63;96.94;99728.66;4953653;29;20542;-74
2020/12/18 09:15:23;;;;;;;25.52;15.40;;;;;;;2.68;96.74;99722.81;4953634;28;20106;-74
2020/12/18 09:18:04;;;;;;;24.60;15.50;;;;;;;2.94;96.36;99727.81;4953706;29;20031;-74
2020/12/18 09:20:41;;;;;;;22.48;14.73;;;;;;;3.08;95.53;99724.78;4953563;29;20031;-74
2020/12/18 09:23:08;;;;;;;23.25;14.23;;;;;;;3.14;95.11;99718.97;4953845;29;20082;-74
2020/12/18 09:25:36;;;;;;;20.45;13.98;;;;;;;3.17;94.98;99719.06;4953504;28;20496;-73
2020/12/18 09:28:02;;;;;;;22.10;14.70;;;;;;;3.21;94.79;99715.75;4953710;29;20038;-73
2020/12/18 09:30:29;;;;;;;24.13;15.40;;;;;;;3.54;93.58;99720.03;4953646;29;20031;-73
2020/12/18 09:33:12;;;;;;;19.67;13.98;;;;;;;3.48;92.61;99707.03;4953590;29;20416;-73
2020/12/18 09:35:39;;;;;;;20.98;13.40;;;;;;;3.45;93.16;99714.69;4953747;28;20027;-74
2020/12/18 09:38:05;;;;;;;20.88;13.95;;;;;;;3.34;93.38;99707.59;4953680;29;20034;-74
2020/12/18 09:40:30;;;;;;;22.52;14.10;;;;;;;3.28;93.73;99715.09;4953275;29;20027;-74
2020/12/18 09:42:56;;;;;;;20.30;14.23;;;;;;;3.49;93.94;99711.38;4953298;29;20027;-73
2020/12/18 09:45:21;;;;;;;21.75;13.13;;;;;;;3.76;93.17;99709.47;4952515;28;20074;-74
2020/12/18 09:47:47;;;;;;;23.85;15.05;;;;;;;3.79;92.58;99701.88;4953315;29;20023;-73
2020/12/18 09:50:12;;;;;;;23.67;15.25;;;;;;;4.01;91.49;99697.22;4953174;29;20485;-73
2020/12/18 09:52:37;;;;;;;22.63;14.77;;;;;;;4.32;90.19;99689.41;4953185;29;20038;-71
2020/12/18 09:55:03;;;;;;;18.60;13.95;;;;;;;4.81;88.61;99690.41;4935922;29;20031;-73
2020/12/18 09:57:28;;;;;;;18.05;12.60;;;;;;;5.97;84.39;99695.91;4953108;29;20090;-75
2020/12/18 09:59:54;;;;;;;21.45;12.48;;;;;;;8.18;74.47;99669.91;4953052;29;20031;-73
2020/12/18 10:02:19;;;;;;;19.25;11.82;;;;;;;7.29;75.22;99683.81;4953204;29;20298;-73
2020/12/18 10:04:44;;;;;;;16.95;11.35;;;;;;;6.86;78.27;99683.34;4952789;29;20544;-71
2020/12/18 10:07:10;;;;;;;14.45;10.05;;;;;;;8.04;73.65;99671.53;4953083;28;20051;-71
2020/12/18 10:09:35;;;;;;;16.38;10.63;;;;;;;9.32;67.87;99665.19;4952961;29;20027;-72
2020/12/18 10:12:01;;;;;;;12.88;9.35;;;;;;;9.47;67.46;99668.63;4953057;29;20031;-71
2020/12/18 10:14:26;;;;;;;15.48;9.13;;;;;;;10.23;64.60;99664.28;4952799;29;20021;-71
2020/12/18 10:16:51;;;;;;;13.25;9.15;;;;;;;11.35;61.74;99651.69;4952527;28;20031;-72
2020/12/18 10:19:17;;;;;;;11.18;8.13;;;;;;;13.02;57.17;99650.84;4952913;29;20031;-72
2020/12/18 10:21:43;;;;;;;9.00;7.65;;;;;;;12.93;55.38;99656.16;4935437;29;20038;-72
2020/12/18 10:24:08;;;;;;;10.55;8.13;;;;;;;14.10;52.66;99657.81;4952687;29;20031;-72
2020/12/18 10:26:33;;;;;;;14.15;7.90;;;;;;;13.53;53.30;99660.53;4952860;28;20027;-72
2020/12/18 10:28:59;;;;;;;13.57;7.78;;;;;;;14.19;51.86;99656.81;4952892;29;20090;-72
2020/12/18 10:31:24;;;;;;;9.70;8.02;;;;;;;14.59;50.65;99655.16;4952617;29;20027;-71
2020/12/18 10:33:49;;;;;;;8.80;7.45;;;;;;;14.35;50.65;99658.22;4952548;29;20094;-71
2020/12/18 10:36:15;;;;;;;9.25;7.10;;;;;;;13.97;52.60;99657.19;4952771;28;20055;-72
2020/12/18 10:38:40;;;;;;;9.93;7.53;;;;;;;16.64;46.24;99647.59;4935595;29;20035;-72
2020/12/18 10:41:07;;;;;;;11.60;7.90;;;;;;;16.86;44.42;99646.97;4952612;29;20035;-72
2020/12/18 10:43:32;;;;;;;9.05;7.78;;;;;;;15.56;47.70;99647.81;4952575;29;20492;-72
2020/12/18 10:45:58;;;;;;;8.80;6.93;;;;;;;15.45;47.63;99645.47;4952324;28;20110;-71
2020/12/18 10:48:24;;;;;;;8.88;6.78;;;;;;;14.60;49.80;99656.91;4952576;29;20102;-72
2020/12/18 10:50:49;;;;;;;9.52;7.10;;;;;;;15.42;48.57;99642.91;4952557;29;20091;-71
2020/12/18 10:53:14;;;;;;;12.07;8.77;;;;;;;12.14;56.72;99650.19;4950558;28;20034;-71
2020/12/18 10:55:40;;;;;;;12.25;8.70;;;;;;;10.58;63.02;99660.75;4939233;29;20117;-72
2020/12/18 10:58:05;;;;;;;11.48;8.93;;;;;;;9.83;66.38;99661.75;4966480;28;20548;-72
2020/12/18 11:00:30;;;;;;;14.32;8.95;;;;;;;8.47;72.05;99661.50;4956269;29;20019;-72
2020/12/18 11:02:57;;;;;;;13.60;9.98;;;;;;;8.12;73.75;99648.34;4964511;28;20392;-71
2020/12/18 11:05:22;;;;;;;21.70;11.60;;;;;;;7.97;75.64;99649.97;4963469;28;20023;-73
2020/12/18 11:07:47;;;;;;;16.10;9.85;;;;;;;7.42;77.45;99649.56;4971344;28;20109;-71
2020/12/18 11:10:13;;;;;;;12.90;10.13;;;;;;;7.57;77.92;99635.06;4958810;28;20156;-73
2020/12/18 11:12:38;;;;;;;16.13;11.05;;;;;;;8.02;77.26;99633.66;4968854;28;20031;-73
2020/12/18 11:15:03;;;;;;;16.80;11.57;;;;;;;9.43;71.58;99622.97;4947986;28;20023;-72
2020/12/18 11:17:29;;;;;;;13.57;9.93;;;;;;;10.91;66.05;99616.53;4962467;28;20102;-71
2020/12/18 11:19:54;;;;;;;13.40;9.18;;;;;;;11.81;62.25;99609.78;4971957;28;20136;-72
2020/12/18 11:22:21;;;;;;;23.70;9.95;;;;;;;11.21;63.60;99612.00;4959711;28;20094;-71
2020/12/18 11:24:46;;;;;;;12.35;9.30;;;;;;;11.90;61.63;99609.75;4967637;28;20129;-72
2020/12/18 11:27:12;;;;;;;12.73;9.55;;;;;;;12.26;59.94;99607.59;4938526;29;20549;-73
2020/12/18 11:29:37;;;;;;;20.20;9.25;;;;;;;13.30;56.95;99586.28;4955526;29;20031;-72
2020/12/18 11:32:02;;;;;;;11.25;8.57;;;;;;;13.66;55.65;99590.88;4971637;28;20118;-71
2020/12/18 11:34:28;;;;;;;12.73;8.80;;;;;;;14.39;54.51;99586.88;4960133;28;20030;-73
2020/12/18 11:36:53;;;;;;;13.02;8.52;;;;;;;14.14;54.63;99592.59;4957554;28;20030;-74
2020/12/18 11:39:21;;;;;;;9.98;8.15;;;;;;;14.40;54.28;99586.00;4963188;28;20395;-72
2020/12/18 11:41:48;;;;;;;19.27;9.63;;;;;;;13.61;55.72;99586.63;4955226;28;20035;-72
2020/12/18 11:44:14;;;;;;;11.88;8.60;;;;;;;13.97;55.31;99589.44;4971070;28;20480;-73
2020/12/18 11:46:39;;;;;;;10.18;8.40;;;;;;;15.04;52.16;99578.56;4961302;28;20057;-74
2020/12/18 11:49:05;;;;;;;11.82;9.32;;;;;;;13.89;55.04;99583.53;4964992;28;20484;-71
2020/12/18 11:51:30;;;;;;;14.10;7.85;;;;;;;12.55;58.19;99579.53;4968348;28;20054;-71
2020/12/18 11:53:58;;;;;;;14.55;9.45;;;;;;;12.43;59.26;99579.69;4957902;28;20058;-74
2020/12/18 11:56:23;;;;;;;11.85;9.45;;;;;;;12.15;60.58;99573.97;4958937;28;20027;-74
2020/12/18 11:58:49;;;;;;;17.25;9.38;;;;;;;12.70;59.27;99570.66;4966935;28;20151;-73
2020/12/18 12:01:21;;;;;;;11.82;9.15;;;;;;;12.65;58.77;99574.19;4965875;28;20404;-72
2020/12/18 12:03:50;;;;;;;12.18;9.10;;;;;;;12.82;59.14;99564.44;4959128;28;20397;-71
2020/12/18 12:06:16;;;;;;;16.23;9.52;;;;;;;13.21;57.58;99554.31;4970708;28;20082;-71
2020/12/18 12:08:42;;;;;;;15.13;10.20;;;;;;;13.63;56.51;99551.00;4960964;28;20109;-73
2020/12/18 12:11:08;;;;;;;15.32;9.98;;;;;;;13.60;56.97;99553.66;4964354;28;20074;-73
2020/12/18 12:13:34;;;;;;;14.07;9.48;;;;;;;14.33;54.92;99545.31;4962708;28;20031;-74
2020/12/18 12:16:00;;;;;;;12.90;8.93;;;;;;;14.02;55.05;99542.44;4955566;28;20030;-71
2020/12/18 12:18:25;;;;;;;14.65;8.82;;;;;;;14.22;54.75;99537.72;4964351;28;20404;-72
2020/12/18 12:20:51;;;;;;;12.43;8.50;;;;;;;14.61;53.60;99535.19;4962598;28;20125;-72
2020/12/18 12:23:16;;;;;;;15.82;10.15;;;;;;;14.45;54.60;99529.38;4962612;28;20454;-73
2020/12/18 12:25:41;;;;;;;19.13;9.27;;;;;;;14.54;54.28;99531.81;4969038;28;20035;-72
2020/12/18 12:28:06;;;;;;;15.25;10.30;;;;;;;12.96;59.32;99528.69;4957743;28;20034;-71
2020/12/18 12:30:32;;;;;;;12.68;9.48;;;;;;;12.73;60.95;99530.75;4968605;28;20038;-70
2020/12/18 12:32:57;;;;;;;13.60;9.82;;;;;;;11.26;65.30;99540.19;4945967;28;20053;-70
2020/12/18 12:35:23;;;;;;;18.58;9.88;;;;;;;10.85;66.70;99538.78;4961646;28;20097;-72
2020/12/18 12:37:49;;;;;;;18.45;10.90;;;;;;;10.53;68.67;99534.66;4970315;28;20041;-72
2020/12/18 12:40:14;;;;;;;19.45;10.88;;;;;;;10.54;69.01;99533.81;4940331;28;20535;-73
2020/12/18 12:42:40;;;;;;;19.77;10.57;;;;;;;10.30;69.67;99536.53;4967183;28;20094;-72
2020/12/18 12:45:05;;;;;;;18.58;11.65;;;;;;;10.39;70.09;99531.28;4953936;28;20023;-72
2020/12/18 12:47:30;;;;;;;19.48;11.18;;;;;;;10.47;69.30;99519.16;4954453;29;20030;-72
2020/12/18 12:49:56;;;;;;;20.88;11.30;;;;;;;10.47;69.07;99519.16;4954598;28;20481;-72
2020/12/18 12:52:21;;;;;;;17.10;11.07;;;;;;;10.44;70.14;99506.22;4969921;28;20022;-72
2020/12/18 12:54:46;;;;;;;19.00;10.95;;;;;;;10.35;70.24;99506.28;4943853;28;20019;-73
2020/12/18 12:57:12;;;;;;;17.70;11.45;;;;;;;10.21;70.85;99500.28;4962619;28;20027;-73
2020/12/18 12:59:37;;;;;;;18.85;11.45;;;;;;;10.19;70.68;99502.84;4968017;28;20407;-73
2020/12/18 13:02:02;;;;;;;18.13;10.68;;;;;;;10.29;70.94;99494.19;4957106;28;20515;-72
2020/12/18 13:04:28;;;;;;;18.75;10.77;;;;;;;10.09;71.34;99495.13;4968283;28;20031;-73
2020/12/18 13:06:57;;;;;;;16.65;10.73;;;;;;;10.26;71.37;99493.38;4961708;28;20030;-72
2020/12/18 13:09:22;;;;;;;20.35;10.65;;;;;;;10.25;70.97;99491.63;4944024;29;20400;-72
2020/12/18 13:11:47;;;;;;;15.57;10.70;;;;;;;10.28;71.05;99489.03;4951725;28;20034;-73
2020/12/18 13:14:13;;;;;;;15.82;10.27;;;;;;;10.36;71.20;99484.69;4954084;28;20011;-72
2020/12/18 13:16:38;;;;;;;15.95;11.52;;;;;;;10.40;70.67;99481.22;4983424;23;20066;-69
2020/12/18 13:19:03;;;;;;;20.38;11.55;;;;;;;10.40;70.99;99481.22;4963573;28;20058;-69
2020/12/18 13:21:34;;;;;;;17.35;10.50;;;;;;;10.55;71.24;99486.28;4965631;28;20038;-69
2020/12/18 13:24:00;;;;;;;17.05;10.30;;;;;;;10.88;70.86;99478.25;4956577;28;20037;-69
2020/12/18 13:26:26;;;;;;;20.38;10.98;;;;;;;10.93;69.79;99472.19;4968356;28;20379;-69
2020/12/18 13:28:52;;;;;;;15.77;10.70;;;;;;;10.75;70.18;99477.50;4961328;28;20030;-69
2020/12/18 13:31:19;;;;;;;17.40;10.32;;;;;;;10.69;70.47;99472.38;4961411;28;20039;-69
2020/12/18 13:33:45;;;;;;;19.40;10.93;;;;;;;10.71;70.57;99465.44;4955418;28;20034;-69
2020/12/18 13:36:11;;;;;;;15.82;10.25;;;;;;;10.66;70.90;99462.03;4955622;28;20396;-69
2020/12/18 13:38:36;;;;;;;17.98;11.10;;;;;;;10.63;70.87;99456.84;4966813;28;20034;-69
2020/12/18 13:41:02;;;;;;;14.93;9.80;;;;;;;10.66;70.74;99462.03;4962565;28;20110;-69
2020/12/18 13:43:28;;;;;;;15.23;8.50;;;;;;;10.74;70.92;99450.75;4959580;28;20090;-69
2020/12/18 13:45:54;;;;;;;17.67;9.65;;;;;;;10.62;70.45;99455.16;4969080;28;20030;-69
2020/12/18 13:48:20;;;;;;;14.88;8.85;;;;;;;10.59;71.02;99444.78;4956829;28;20027;-69
2020/12/18 13:50:45;;;;;;;17.45;9.90;;;;;;;10.47;71.46;99451.78;4965329;28;20706;-69
2020/12/18 13:53:11;;;;;;;18.75;10.10;;;;;;;10.66;70.99;99438.72;4953105;29;20087;-69
2020/12/18 13:55:36;;;;;;;17.50;10.73;;;;;;;10.63;71.41;99438.72;4966649;28;20030;-69
2020/12/18 13:58:01;;;;;;;18.27;9.10;;;;;;;10.50;71.28;99438.81;4956363;28;20460;-69
2020/12/18 14:00:27;;;;;;;13.00;8.63;;;;;;;10.46;71.63;99444.91;4967712;28;20404;-69
2020/12/18 14:02:52;;;;;;;18.77;8.77;;;;;;;10.54;71.83;99437.94;4961176;28;20036;-69
2020/12/18 14:05:19;;;;;;;13.32;9.10;;;;;;;10.44;72.25;99433.69;4943535;28;20035;-69
2020/12/18 14:07:44;;;;;;;14.77;8.23;;;;;;;10.41;72.33;99438.03;4967559;28;20022;-69
2020/12/18 14:10:09;;;;;;;15.40;8.85;;;;;;;10.29;72.89;99441.53;4956229;28;20437;-69
2020/12/18 14:12:35;;;;;;;11.63;7.53;;;;;;;10.33;72.98;99438.06;4966312;28;20027;-69
2020/12/18 14:15:00;;;;;;;19.33;9.00;;;;;;;10.27;73.01;99433.78;4944670;28;20030;-69
2020/12/18 14:17:25;;;;;;;14.30;8.65;;;;;;;10.19;73.13;99437.25;4959555;28;20070;-69
2020/12/18 14:19:51;;;;;;;13.68;8.23;;;;;;;10.22;73.84;99439.84;4968603;28;20028;-69
2020/12/18 14:22:18;;;;;;;14.48;8.00;;;;;;;10.22;73.56;99434.66;4956022;28;20106;-69
2020/12/18 14:24:43;;;;;;;18.88;9.18;;;;;;;10.05;73.86;99433.00;4964951;28;20023;-69
2020/12/18 14:27:10;;;;;;;14.35;7.95;;;;;;;10.18;73.80;99438.13;4962580;28;20428;-69
2020/12/18 14:29:36;;;;;;;14.68;8.30;;;;;;;10.09;74.20;99444.22;4958338;28;20031;-69
2020/12/18 14:32:02;;;;;;;13.95;8.88;;;;;;;9.95;74.40;99452.03;4970540;28;20030;-69
2020/12/18 14:34:27;;;;;;;15.40;8.77;;;;;;;9.87;74.42;99453.81;4961102;28;20114;-69
2020/12/18 14:36:53;;;;;;;16.17;8.75;;;;;;;9.77;75.24;99453.00;4967927;28;20106;-69
2020/12/18 14:39:18;;;;;;;19.73;10.13;;;;;;;9.78;75.57;99453.88;4967721;28;20026;-69
2020/12/18 14:41:46;;;;;;;23.58;12.68;;;;;;;9.63;75.47;99456.50;4960795;28;20489;-69
2020/12/18 14:44:11;;;;;;;19.17;10.40;;;;;;;9.55;76.11;99448.75;4972149;28;20038;-69
2020/12/18 14:46:36;;;;;;;22.17;9.77;;;;;;;9.45;76.56;99460.84;4962285;28;20365;-69
2020/12/18 14:49:02;;;;;;;17.25;11.38;;;;;;;9.38;77.14;99459.16;4966320;28;20054;-69
2020/12/18 14:51:27;;;;;;;22.52;10.88;;;;;;;9.36;77.19;99454.84;4969065;28;20027;-69
2020/12/18 14:53:53;;;;;;;16.58;9.70;;;;;;;9.26;77.28;99459.19;4959516;28;20059;-69
2020/12/18 14:56:19;;;;;;;17.30;10.30;;;;;;;9.21;78.13;99461.75;4971892;28;20041;-69
2020/12/18 14:58:44;;;;;;;21.85;12.40;;;;;;;9.15;78.01;99460.94;4956081;29;20027;-69
2020/12/18 15:01:09;;;;;;;25.65;12.90;;;;;;;9.08;78.60;99454.03;4955997;29;20027;-69
2020/12/18 15:03:34;;;;;;;21.88;12.30;;;;;;;9.02;78.84;99454.91;4969604;28;20045;-69
2020/12/18 15:06:00;;;;;;;28.08;14.57;;;;;;;8.95;78.95;99453.19;4959196;28;20031;-69
2020/12/18 15:08:25;;;;;;;20.02;12.43;;;;;;;8.72;79.46;99455.78;4971026;28;20027;-69
2020/12/18 15:10:51;;;;;;;28.20;17.70;;;;;;;8.43;80.66;99458.31;4963720;28;20398;-69
2020/12/18 15:13:17;;;;;;;35.45;18.80;;;;;;;8.19;81.82;99459.09;4963691;28;20106;-69
2020/12/18 15:15:42;;;;;;;34.35;17.23;;;;;;;8.06;82.56;99447.88;4955691;28;20027;-69
2020/12/18 15:18:07;;;;;;;29.10;15.52;;;;;;;7.80;83.62;99449.53;4971217;28;20026;-69
2020/12/18 15:20:36;;;;;;;24.92;15.40;;;;;;;7.67;84.49;99448.59;4960830;28;20440;-69
2020/12/18 15:23:02;;;;;;;31.07;17.53;;;;;;;7.43;84.93;99455.34;4965838;28;20114;-69
2020/12/18 15:25:28;;;;;;;27.80;16.48;;;;;;;7.32;85.36;99449.28;4968266;28;20031;-68
2020/12/18 15:27:53;;;;;;;30.88;17.73;;;;;;;7.20;86.62;99446.59;4958935;28;20392;-69
2020/12/18 15:30:19;;;;;;;31.33;17.52;;;;;;;7.29;85.68;99446.66;4971605;28;20023;-68
2020/12/18 15:32:45;;;;;;;32.65;17.85;;;;;;;7.10;86.59;99439.69;4962225;28;20022;-69
2020/12/18 15:35:11;;;;;;;26.13;16.48;;;;;;;7.03;87.03;99443.06;4964467;28;20023;-69
2020/12/18 15:37:36;;;;;;;19.17;13.10;;;;;;;6.98;86.74;99444.75;4969428;28;20081;-69
2020/12/18 15:40:02;;;;;;;23.10;12.95;;;;;;;7.01;87.75;99442.19;4958637;28;20059;-69
2020/12/18 15:42:27;;;;;;;24.23;12.43;;;;;;;7.01;88.15;99445.66;4969702;28;20023;-69
2020/12/18 15:44:53;;;;;;;22.17;11.85;;;;;;;6.98;88.26;99442.19;4962649;28;20035;-69
2020/12/18 15:47:18;;;;;;;19.08;11.52;;;;;;;6.91;88.58;99448.97;4963180;28;20033;-68
2020/12/18 15:49:43;;;;;;;20.73;11.43;;;;;;;6.81;88.59;99448.06;4969961;28;20030;-68
2020/12/18 15:52:08;;;;;;;23.05;12.50;;;;;;;6.73;89.15;99449.72;4958570;28;20117;-68
2020/12/18 15:54:34;;;;;;;139.77;48.53;;;;;;;6.65;89.29;99443.63;4961323;28;20485;-69
2020/12/18 15:57:00;;;;;;;90.20;35.05;;;;;;;6.66;89.20;99447.94;4964108;28;20035;-68
2020/12/18 15:59:25;;;;;;;54.03;22.50;;;;;;;6.60;89.62;99453.91;4962295;28;20027;-68
2020/12/18 16:01:50;;;;;;;46.08;21.63;;;;;;;6.58;89.47;99450.47;4970741;28;20045;-69
2020/12/18 16:04:16;;;;;;;91.20;40.58;;;;;;;6.48;89.72;99452.91;4958075;28;20566;-69
2020/12/18 16:06:41;;;;;;;41.95;19.48;;;;;;;6.42;90.04;99454.59;4967637;28;20030;-69
2020/12/18 16:09:06;;;;;;;50.45;19.85;;;;;;;6.37;90.13;99451.09;4964736;28;20477;-68
2020/12/18 16:11:32;;;;;;;63.53;27.05;;;;;;;6.35;89.81;99449.38;4960944;28;20082;-67
2020/12/18 16:13:57;;;;;;;85.80;34.45;;;;;;;6.23;90.22;99446.66;4970620;28;20089;-69
2020/12/18 16:16:23;;;;;;;42.85;20.92;;;;;;;6.20;90.50;99446.66;4958688;28;20038;-68
2020/12/18 16:18:48;;;;;;;27.35;15.52;;;;;;;6.13;90.62;99450.84;4966555;28;20031;-66
2020/12/18 16:21:14;;;;;;;28.48;14.68;;;;;;;6.05;90.68;99447.34;4954872;29;20073;-67
2020/12/18 16:23:40;;;;;;;32.90;16.80;;;;;;;5.92;91.14;99447.22;4954451;29;20027;-66
2020/12/18 16:26:07;;;;;;;27.02;15.10;;;;;;;5.86;90.99;99446.25;4954635;28;20035;-66
2020/12/18 16:28:33;;;;;;;26.58;13.95;;;;;;;5.81;91.41;99448.78;4954840;29;20051;-67
2020/12/18 16:30:59;;;;;;;25.55;13.07;;;;;;;5.75;91.28;99456.38;4954919;29;20029;-66
2020/12/18 16:33:24;;;;;;;24.10;13.98;;;;;;;5.65;91.55;99451.97;4954531;29;20384;-66
2020/12/18 16:35:50;;;;;;;23.55;14.55;;;;;;;5.55;92.08;99452.72;4954669;28;20054;-67
2020/12/18 16:38:15;;;;;;;25.27;14.93;;;;;;;5.46;92.66;99455.16;4954454;29;20031;-67
2020/12/18 16:40:41;;;;;;;25.38;15.63;;;;;;;5.49;92.89;99445.78;4952985;29;20027;-67
2020/12/18 16:43:07;;;;;;;25.23;14.88;;;;;;;5.50;92.80;99446.66;4952631;29;20300;-67
2020/12/18 16:45:33;;;;;;;25.40;14.23;;;;;;;5.41;92.79;99440.56;4952870;28;20444;-67
2020/12/18 16:47:58;;;;;;;29.85;16.05;;;;;;;5.45;93.76;99448.28;4952714;29;20492;-67
2020/12/18 16:50:23;;;;;;;27.23;14.68;;;;;;;5.57;93.70;99440.75;4952810;29;20407;-67
2020/12/18 16:52:49;;;;;;;29.42;14.98;;;;;;;5.84;94.41;99438.50;4952991;29;20059;-67
2020/12/18 16:55:14;;;;;;;33.17;14.85;;;;;;;5.87;92.46;99443.69;4953837;28;20023;-70
2020/12/18 16:57:40;;;;;;;25.83;13.60;;;;;;;5.90;92.42;99448.03;4954436;29;20102;-67
2020/12/18 17:00:06;;;;;;;29.48;16.13;;;;;;;5.92;91.73;99446.34;4954244;29;20027;-67
2020/12/18 17:02:31;;;;;;;25.77;14.65;;;;;;;6.00;90.24;99444.75;4954204;29;20033;-66
2020/12/18 17:04:56;;;;;;;30.83;16.35;;;;;;;5.86;89.42;99441.97;4953833;29;20511;-67
2020/12/18 17:07:25;;;;;;;31.65;16.75;;;;;;;5.78;89.39;99446.16;4954053;28;20058;-67
2020/12/18 17:09:50;;;;;;;30.77;19.00;;;;;;;5.54;89.59;99453.56;4954107;29;20027;-67
2020/12/18 17:12:16;;;;;;;19.75;12.27;;;;;;;5.57;89.20;99444.19;4954101;29;20033;-67
2020/12/18 17:14:41;;;;;;;20.75;12.10;;;;;;;5.59;89.03;99449.34;4953623;29;20106;-67
2020/12/18 17:17:07;;;;;;;21.80;11.13;;;;;;;5.76;88.62;99450.44;4953758;28;20039;-67
2020/12/18 17:19:33;;;;;;;21.83;12.95;;;;;;;5.70;88.56;99442.63;4953890;29;20031;-67
2020/12/18 17:22:03;;;;;;;28.15;14.52;;;;;;;5.53;88.98;99447.56;4954061;29;20373;-67
2020/12/18 17:24:28;;;;;;;20.58;12.25;;;;;;;5.59;88.59;99446.75;4953834;29;20478;-67